Latest Weather Observations for Archerfield

IDQ60801

Issued at 10:02 am EST Thursday 2 April 2015 (issued every 30 minutes, with the page automatically refreshed every 10 minutes)

About weather observations | Map of weather stations | Latest weather observations for QLD | Other Formats
Station Details ID: 040211 Name: ARCHERFIELD AIRPORT Lat: -27.57 Lon: 153.01 Height: 12.5 m
Data from the previous 72 hours. | See also: Recent months at Archerfield
Date/Time
EST
Temp
°C
App
Temp
°C
Dew
Point
Rel
Hum
%
Delta-T
°C
Wind Press
QNH
hPa
Press
MSL
hPa
Rain
since 9 am
mm
Dir
 
Spd
km/h
Gust
km/h
Spd
kts
Gust
kts
02/10:00am 25.8 27.6 20.4 72 3.5 ESE 11 20 6 11 1019.0 1018.9 0.0
02/09:30am 24.2 25.2 19.5 75 3.0 SSE 13 20 7 11 1019.5 1019.4 0.0
02/09:00am 23.4 25.1 20.1 82 2.1 SSE 11 13 6 7 1019.6 1019.5 5.4
02/08:30am 22.4 24.2 19.6 84 1.8 SSE 9 13 5 7 1019.6 1019.5 5.4
02/08:00am 20.6 22.0 18.7 89 1.2 SSE 9 15 5 8 1019.4 1019.3 5.4
02/07:30am 20.0 21.2 18.3 90 1.1 SSE 9 13 5 7 1019.1 1019.0 5.4
02/07:00am 19.3 20.8 18.0 92 0.8 SSW 7 9 4 5 1018.7 1018.6 5.4
02/06:30am 18.8 20.2 17.8 94 0.6 SSW 7 9 4 5 1018.3 1018.2 5.4
02/05:30am 18.7 21.4 17.7 94 0.6 CALM 0 0 0 0 1017.8 1017.7 5.4
02/05:00am 18.8 21.4 17.6 93 0.7 CALM 0 0 0 0 1017.7 1017.6 5.4
02/04:30am 19.1 20.8 18.1 94 0.6 SSW 6 7 3 4 1017.7 1017.6 5.4
02/04:00am 19.1 20.6 18.1 94 0.6 SSW 7 11 4 6 1017.6 1017.5 5.4
02/03:30am 19.4 20.7 18.4 94 0.6 SW 9 11 5 6 1017.7 1017.6 5.4
02/03:00am 19.6 21.3 18.6 94 0.6 WSW 7 9 4 5 1018.2 1018.1 5.4
02/02:30am 19.5 21.2 18.5 94 0.6 WSW 7 9 4 5 1018.4 1018.3 5.4
02/02:00am 19.6 21.3 18.4 93 0.7 WSW 7 9 4 5 1018.8 1018.7 5.2
02/01:30am 19.6 21.8 18.4 93 0.7 SSW 4 9 2 5 1019.4 1019.3 5.2
02/01:00am 19.6 21.3 18.6 94 0.6 SSW 7 9 4 5 1019.4 1019.3 5.2
02/12:30am 19.8 21.3 19.0 95 0.5 SSW 9 9 5 5 1019.7 1019.6 5.2
02/12:00am 19.7 21.2 18.9 95 0.5 SSW 9 13 5 7 1020.0 1019.9 5.2
 
Date/Time
EST
Temp
°C
App
Temp
°C
Dew
Point
Rel
Hum
%
Delta-T
°C
Wind Press
QNH
hPa
Press
MSL
hPa
Rain
since 9 am
mm
Dir
 
Spd
km/h
Gust
km/h
Spd
kts
Gust
kts
01/11:49pm 19.7 20.7 18.7 94 0.6 SSW 11 15 6 8 1020.1 1020.0 5.2
01/11:30pm 19.9 21.8 18.9 94 0.6 SW 7 9 4 5 1020.5 1020.4 4.4
01/11:21pm 20.0 22.0 18.8 93 0.8 SSW 6 7 3 4 1020.4 1020.3 3.0
01/11:00pm 20.3 22.1 18.8 91 0.9 SW 7 9 4 5 1020.5 1020.4 1.6
01/10:30pm 20.3 20.9 18.6 90 1.1 N 13 19 7 10 1020.6 1020.5 1.6
01/10:00pm 20.1 21.4 18.4 90 1.1 S 9 13 5 7 1020.3 1020.2 1.4
01/09:30pm 20.2 21.1 18.5 90 1.1 S 11 15 6 8 1020.3 1020.2 1.4
01/09:00pm 20.4 21.3 18.5 89 1.2 SSE 11 15 6 8 1020.2 1020.1 1.4
01/08:30pm 21.2 21.5 18.0 82 2.0 SSE 13 19 7 10 1020.0 1019.9 0.6
01/08:00pm 21.2 21.2 18.0 82 2.0 SSE 15 19 8 10 1019.8 1019.7 0.6
01/07:30pm 21.4 22.2 18.2 82 2.0 SSE 11 13 6 7 1019.9 1019.8 0.6
01/07:00pm 21.7 22.5 18.1 80 2.2 SSE 11 13 6 7 1019.6 1019.5 0.6
01/06:30pm 21.9 22.5 17.7 77 2.6 SE 11 13 6 7 1019.2 1019.1 0.6
01/06:00pm 22.4 22.5 17.5 74 3.0 SE 13 19 7 10 1018.9 1018.8 0.6
01/05:30pm 22.8 22.9 17.5 72 3.3 ESE 13 19 7 10 1018.8 1018.7 0.6
01/05:00pm 23.7 23.2 17.9 70 3.6 E 17 22 9 12 1018.6 1018.5 0.6
01/04:30pm 23.8 23.8 18.9 74 3.1 ESE 17 24 9 13 1018.6 1018.5 0.6
01/04:00pm 24.0 23.4 18.9 73 3.2 ESE 20 32 11 17 1018.6 1018.5 0.6
01/03:30pm 23.8 23.9 19.1 75 3.0 ESE 17 20 9 11 1018.8 1018.7 0.6
01/03:00pm 23.8 23.8 18.9 74 3.1 SE 17 20 9 11 1018.9 1018.8 0.6
01/02:30pm 23.6 22.7 18.3 72 3.3 ESE 20 28 11 15 1019.1 1019.0 0.6
01/02:00pm 23.6 21.7 16.6 65 4.3 ESE 22 30 12 16 1019.4 1019.3 0.6
01/01:30pm 23.5 23.7 18.6 74 3.1 ESE 15 19 8 10 1019.7 1019.6 0.6
01/01:00pm 23.1 24.5 19.5 80 2.3 SE 11 17 6 9 1020.0 1019.9 0.6
01/12:30pm 22.6 24.6 19.2 81 2.2 SSE 7 13 4 7 1020.5 1020.4 0.6
01/12:00pm 21.6 22.9 19.3 87 1.5 SSW 11 13 6 7 1020.9 1020.8 0.6
01/11:30am 20.6 22.0 18.7 89 1.2 SSW 9 11 5 6 1021.6 1021.5 0.6
01/11:00am 20.1 21.4 18.4 90 1.1 SW 9 13 5 7 1022.2 1022.1 0.6
01/10:30am 19.8 21.5 18.5 92 0.8 SSW 7 11 4 6 1022.7 1022.6 0.6
01/10:00am 19.5 22.1 18.5 94 0.6 SSE 2 9 1 5 1023.1 1023.0 0.4
01/09:30am 19.4 20.3 18.4 94 0.6 S 11 15 6 8 1023.0 1022.9 0.0
01/09:00am 19.0 19.4 18.2 95 0.5 S 13 15 7 8 1023.2 1023.1 57.8
01/08:30am 18.8 20.3 18.0 95 0.5 S 7 11 4 6 1023.3 1023.2 57.2
01/08:00am 18.5 19.1 17.7 95 0.5 S 11 15 6 8 1023.0 1022.9 56.4
01/07:30am 18.6 18.9 17.9 96 0.4 S 13 19 7 10 1022.6 1022.5 55.2
01/07:00am 18.7 17.9 17.9 95 0.5 S 19 28 10 15 1022.0 1021.9 52.0
01/06:30am 18.9 18.6 18.2 96 0.4 S 17 24 9 13 1021.8 1021.7 47.4
01/06:00am 19.2 20.1 18.5 96 0.4 SSE 11 13 6 7 1021.5 1021.4 42.6
01/05:44am 19.3 19.9 18.6 96 0.4 SE 13 17 7 9 1021.3 1021.2 40.8
01/05:40am 19.3 20.3 18.6 96 0.4 ESE 11 15 6 8 1021.4 1021.3 40.2
01/05:30am 19.2 20.2 18.7 97 0.3 E 11 17 6 9 1021.4 1021.3 39.2
01/05:03am 19.0 18.1 18.3 96 0.4 SE 20 30 11 16 1020.8 1020.7 28.0
01/05:00am 19.0 18.1 18.3 96 0.4 SE 20 28 11 15 1020.9 1020.8 25.2
01/04:50am 19.1 18.5 18.4 96 0.4 SSE 19 24 10 13 1020.6 1020.5 19.4
01/04:41am 19.0 18.3 18.3 96 0.4 SSE 19 28 10 15 1020.4 1020.3 16.2
01/04:30am 18.9 18.2 18.2 96 0.4 SE 19 24 10 13 1020.3 1020.2 13.2
01/04:00am 18.9 18.1 18.1 95 0.5 SSE 19 24 10 13 1020.0 1019.9 10.8
01/03:30am 18.9 18.0 18.1 95 0.5 SSE 20 26 11 14 1019.8 1019.7 9.4
01/03:00am 19.0 18.1 18.2 95 0.5 SSE 20 32 11 17 1019.9 1019.8 7.4
01/02:58am 19.1 18.4 18.3 95 0.5 SSE 19 28 10 15 1019.9 1019.8 7.4
01/02:53am 19.2 18.6 18.4 95 0.5 SSE 19 24 10 13 1020.1 1020.0 6.8
01/02:38am 19.3 20.2 18.5 95 0.5 SE 11 19 6 10 1020.3 1020.2 5.2
01/02:30am 19.3 19.8 18.3 94 0.6 SE 13 15 7 8 1020.3 1020.2 3.4
01/02:25am 19.4 20.3 18.4 94 0.6 SSE 11 15 6 8 1020.3 1020.2 3.2
01/02:00am 19.5 19.3 18.5 94 0.6 SSE 17 22 9 12 1020.3 1020.2 3.2
01/01:30am 19.5 19.7 18.5 94 0.6 SSE 15 20 8 11 1020.7 1020.6 2.8
01/01:00am 19.6 19.7 18.4 93 0.7 SSE 15 20 8 11 1020.9 1020.8 2.6
01/12:30am 20.5 21.2 17.9 85 1.6 SSE 11 17 6 9 1021.4 1021.3 2.0
01/12:00am 20.3 21.4 17.9 86 1.5 SSE 9 13 5 7 1021.4 1021.3 2.0
 
Date/Time
EST
Temp
°C
App
Temp
°C
Dew
Point
Rel
Hum
%
Delta-T
°C
Wind Press
QNH
hPa
Press
MSL
hPa
Rain
since 9 am
mm
Dir
 
Spd
km/h
Gust
km/h
Spd
kts
Gust
kts
31/11:30pm 20.0 21.0 17.8 87 1.4 S 9 13 5 7 1021.4 1021.3 2.0
31/11:00pm 20.3 21.4 18.1 87 1.4 S 9 11 5 6 1021.9 1021.8 2.0
31/10:30pm 20.2 21.7 18.0 87 1.4 S 7 11 4 6 1022.1 1022.0 2.0
31/10:00pm 20.4 21.1 18.0 86 1.5 S 11 13 6 7 1022.2 1022.1 2.0
31/09:30pm 20.4 21.4 17.8 85 1.6 SSE 9 13 5 7 1022.3 1022.2 2.0
31/09:00pm 20.4 21.5 18.0 86 1.5 SSE 9 13 5 7 1022.5 1022.4 2.0
31/08:30pm 20.5 19.7 18.1 86 1.5 E 19 26 10 14 1022.4 1022.3 2.0
31/08:00pm 20.7 19.9 18.5 87 1.4 SE 20 30 11 16 1022.2 1022.1 2.0
31/07:30pm 20.5 20.9 18.1 86 1.5 SE 13 19 7 10 1022.0 1021.9 2.0
31/07:00pm 20.7 20.6 18.8 89 1.2 SE 17 20 9 11 1021.6 1021.5 2.0
31/06:30pm 21.2 21.2 18.2 83 1.9 SE 15 22 8 12 1021.5 1021.4 1.8
31/06:00pm 21.5 22.7 18.3 82 2.0 ESE 9 17 5 9 1021.2 1021.1 1.8
31/05:30pm 21.5 22.0 18.3 82 2.0 ESE 13 17 7 9 1020.8 1020.7 1.8
31/05:00pm 21.5 21.4 18.7 84 1.8 ESE 17 22 9 12 1020.8 1020.7 1.8
31/04:30pm 21.4 21.5 19.1 87 1.5 ESE 17 26 9 14 1020.6 1020.5 1.8
31/04:00pm 20.7 18.8 18.6 88 1.3 E 26 37 14 20 1020.6 1020.5 1.4
31/03:43pm 22.8 19.9 17.0 70 3.6 ESE 28 37 15 20 1020.3 1020.2 0.0
31/03:30pm 24.8 24.9 17.5 64 4.6 E 13 19 7 10 1020.1 1020.0 0.0
31/03:00pm 25.0 24.9 17.0 61 4.9 ENE 13 19 7 10 1020.3 1020.2 0.0
31/02:30pm 25.1 25.3 17.6 63 4.7 ESE 13 22 7 12 1020.3 1020.2 0.0
31/02:00pm 25.1 25.1 18.1 65 4.4 ESE 15 22 8 12 1020.6 1020.5 0.0
31/01:30pm 24.8 25.8 17.8 65 4.4 E 9 13 5 7 1021.0 1020.9 0.0
31/01:00pm 24.8 25.4 17.8 65 4.4 E 11 17 6 9 1021.3 1021.2 0.0
31/12:30pm 24.9 24.5 18.1 66 4.3 E 17 20 9 11 1021.4 1021.3 0.0
31/12:00pm 24.8 25.0 18.5 68 4.0 ESE 15 22 8 12 1022.0 1021.9 0.0
31/11:30am 24.5 25.2 18.9 71 3.6 SE 13 17 7 9 1022.3 1022.2 0.0
31/11:00am 23.8 24.8 18.7 73 3.2 S 11 15 6 8 1022.8 1022.7 0.0
31/10:30am 23.5 23.7 18.6 74 3.1 SE 15 19 8 10 1022.7 1022.6 0.0
31/10:00am 23.3 24.7 18.6 75 3.0 SSE 9 11 5 6 1023.2 1023.1 0.0
31/09:30am 22.7 24.0 18.5 77 2.6 SE 9 13 5 7 1023.3 1023.2 0.0
31/09:00am 22.6 24.4 18.4 77 2.6 SSE 6 9 3 5 1023.3 1023.2 0.0
31/08:30am 22.0 23.7 18.4 80 2.3 S 7 9 4 5 1023.3 1023.2 0.0
31/08:00am 21.1 22.7 17.9 82 2.0 SSE 6 9 3 5 1022.8 1022.7 0.0
31/07:30am 20.3 21.5 17.3 83 1.8 SSE 7 9 4 5 1022.5 1022.4 0.0
31/07:00am 19.7 21.4 17.1 85 1.6 S 4 7 2 4 1022.2 1022.1 0.0
31/06:30am 19.4 20.2 17.4 88 1.2 S 9 11 5 6 1022.1 1022.0 0.0
31/06:00am 19.3 20.5 16.9 86 1.4 SSE 6 7 3 4 1021.6 1021.5 0.0
31/05:30am 18.9 21.3 16.9 88 1.2 CALM 0 6 0 3 1021.5 1021.4 0.0
31/05:00am 19.3 20.4 16.7 85 1.6 S 6 9 3 5 1021.5 1021.4 0.0
31/04:30am 19.4 21.7 16.8 85 1.6 CALM 0 0 0 0 1021.2 1021.1 0.0
31/04:00am 19.6 22.1 17.2 86 1.5 CALM 0 0 0 0 1021.2 1021.1 0.0
31/03:30am 19.8 21.8 17.0 84 1.7 SSE 2 7 1 4 1021.1 1021.0 0.0
31/03:00am 19.9 20.9 16.9 83 1.8 SSE 7 9 4 5 1021.3 1021.2 0.0
31/02:30am 19.7 20.7 16.9 84 1.7 S 7 9 4 5 1021.6 1021.5 0.0
31/02:00am 19.7 22.1 17.1 85 1.6 CALM 0 0 0 0 1021.9 1021.8 0.0
31/01:30am 19.7 21.0 17.1 85 1.6 SSE 6 11 3 6 1022.1 1022.0 0.0
31/01:00am 19.6 20.7 17.0 85 1.6 SSE 7 11 4 6 1022.4 1022.3 0.0
31/12:30am 19.7 21.0 17.1 85 1.6 SSE 6 7 3 4 1022.6 1022.5 0.0
31/12:00am 19.6 20.8 17.4 87 1.3 SE 7 9 4 5 1022.7 1022.6 0.0
 
Date/Time
EST
Temp
°C
App
Temp
°C
Dew
Point
Rel
Hum
%
Delta-T
°C
Wind Press
QNH
hPa
Press
MSL
hPa
Rain
since 9 am
mm
Dir
 
Spd
km/h
Gust
km/h
Spd
kts
Gust
kts
30/11:30pm 19.9 20.6 17.1 84 1.7 S 9 11 5 6 1022.9 1022.8 0.0
30/11:00pm 19.8 20.6 17.2 85 1.6 S 9 9 5 5 1022.9 1022.8 0.0
30/10:30pm 20.6 23.1 17.2 81 2.1 CALM 0 0 0 0 1022.9 1022.8 0.0
30/10:00pm 21.8 23.2 16.5 72 3.2 ENE 4 9 2 5 1023.2 1023.1 0.0
30/09:30pm 21.4 23.9 17.2 77 2.6 CALM 0 4 0 2 1023.2 1023.1 0.0
30/09:00pm 22.2 23.6 16.5 70 3.5 ESE 4 7 2 4 1023.4 1023.3 0.0
30/08:30pm 22.3 23.1 16.3 69 3.6 ENE 7 11 4 6 1023.2 1023.1 0.0
30/08:00pm 22.7 23.5 16.3 67 3.9 E 7 11 4 6 1023.1 1023.0 0.0
30/07:30pm 23.0 23.5 16.5 67 4.0 E 9 11 5 6 1023.0 1022.9 0.0
30/07:00pm 23.0 23.4 16.3 66 4.1 E 9 13 5 7 1022.7 1022.6 0.0
30/06:30pm 23.5 23.2 16.5 65 4.3 E 13 17 7 9 1022.2 1022.1 0.0
30/06:00pm 23.8 23.4 16.3 63 4.6 E 13 20 7 11 1021.8 1021.7 0.0
30/05:30pm 24.5 24.0 16.0 59 5.2 ENE 13 19 7 10 1021.4 1021.3 0.0
30/05:00pm 24.9 24.0 15.8 57 5.5 ENE 15 20 8 11 1021.3 1021.2 0.0
30/04:30pm 25.9 24.7 16.2 55 6.0 NE 17 24 9 13 1021.1 1021.0 0.0
30/04:00pm 25.4 24.5 16.8 59 5.3 NE 17 22 9 12 1020.8 1020.7 0.0
30/03:30pm 25.4 23.8 16.5 58 5.5 NE 20 28 11 15 1020.5 1020.4 0.0
30/03:00pm 26.1 25.4 16.4 55 6.0 NE 15 22 8 12 1020.4 1020.3 0.0
30/02:30pm 27.5 27.3 17.7 55 6.2 NE 15 20 8 11 1020.7 1020.6 0.0
30/02:00pm 26.8 26.0 17.0 55 6.1 NE 17 22 9 12 1021.1 1021.0 0.0
30/01:30pm 27.0 26.0 16.6 53 6.4 NE 17 24 9 13 1020.8 1020.7 0.0
30/01:00pm 27.2 26.0 16.2 51 6.8 NE 17 26 9 14 1021.3 1021.2 0.0
30/12:30pm 27.1 26.6 15.8 50 6.9 NE 13 24 7 13 1022.1 1022.0 0.0
30/12:00pm 26.5 25.2 16.7 55 6.1 NNE 19 24 10 13 1022.4 1022.3 0.0
30/11:30am 26.2 25.4 17.0 57 5.7 ENE 17 22 9 12 1022.8 1022.7 0.0
30/11:00am 25.4 26.8 18.6 66 4.3 ENE 9 13 5 7 1023.6 1023.5 0.0
30/10:30am 24.5 26.3 18.7 70 3.7 WSW 7 9 4 5 1024.0 1023.9 0.0

Other Formats:

Comma delimited format used in spreadsheet applications
http://www.bom.gov.au/fwo/IDQ60801/IDQ60801.94575.axf

JavaScript Object Notation format (JSON) in row-major order
http://www.bom.gov.au/fwo/IDQ60801/IDQ60801.94575.json